sensor_id;sensor_type;location;lat;lon;timestamp;P1;durP1;ratioP1;P2;durP2;ratioP2
55372;SDS011;70018;47.838;16.490;2024-03-02T00:01:15;29.27;;;14.48;;
55372;SDS011;70018;47.838;16.490;2024-03-02T00:03:42;35.58;;;17.25;;
55372;SDS011;70018;47.838;16.490;2024-03-02T00:06:10;28.35;;;15.48;;
55372;SDS011;70018;47.838;16.490;2024-03-02T00:08:37;37.88;;;16.85;;
55372;SDS011;70018;47.838;16.490;2024-03-02T00:11:04;38.53;;;18.90;;
55372;SDS011;70018;47.838;16.490;2024-03-02T00:13:31;36.13;;;17.77;;
55372;SDS011;70018;47.838;16.490;2024-03-02T00:15:58;38.17;;;14.98;;
55372;SDS011;70018;47.838;16.490;2024-03-02T00:18:32;33.90;;;15.85;;
55372;SDS011;70018;47.838;16.490;2024-03-02T00:21:01;29.63;;;12.82;;
55372;SDS011;70018;47.838;16.490;2024-03-02T00:23:32;32.70;;;16.50;;
55372;SDS011;70018;47.838;16.490;2024-03-02T00:26:01;35.67;;;18.30;;
55372;SDS011;70018;47.838;16.490;2024-03-02T00:28:31;47.88;;;18.45;;
55372;SDS011;70018;47.838;16.490;2024-03-02T00:31:06;32.38;;;17.17;;
55372;SDS011;70018;47.838;16.490;2024-03-02T00:36:03;29.15;;;13.25;;
55372;SDS011;70018;47.838;16.490;2024-03-02T00:38:30;32.58;;;14.30;;
55372;SDS011;70018;47.838;16.490;2024-03-02T00:40:58;38.47;;;16.67;;
55372;SDS011;70018;47.838;16.490;2024-03-02T00:46:17;40.17;;;15.13;;
55372;SDS011;70018;47.838;16.490;2024-03-02T00:48:52;39.90;;;17.25;;
55372;SDS011;70018;47.838;16.490;2024-03-02T00:51:27;19.80;;;10.05;;
55372;SDS011;70018;47.838;16.490;2024-03-02T00:53:57;22.92;;;10.15;;
55372;SDS011;70018;47.838;16.490;2024-03-02T00:56:25;32.42;;;15.48;;
55372;SDS011;70018;47.838;16.490;2024-03-02T00:58:52;23.63;;;11.23;;
55372;SDS011;70018;47.838;16.490;2024-03-02T01:01:19;38.40;;;14.48;;
55372;SDS011;70018;47.838;16.490;2024-03-02T01:03:46;34.13;;;16.13;;
55372;SDS011;70018;47.838;16.490;2024-03-02T01:06:13;34.08;;;13.35;;
55372;SDS011;70018;47.838;16.490;2024-03-02T01:08:41;19.60;;;9.85;;
55372;SDS011;70018;47.838;16.490;2024-03-02T01:11:08;17.65;;;10.23;;
55372;SDS011;70018;47.838;16.490;2024-03-02T01:13:35;23.33;;;11.48;;
55372;SDS011;70018;47.838;16.490;2024-03-02T01:16:02;22.75;;;9.98;;
55372;SDS011;70018;47.838;16.490;2024-03-02T01:18:29;31.20;;;12.40;;
55372;SDS011;70018;47.838;16.490;2024-03-02T01:20:56;19.80;;;9.70;;
55372;SDS011;70018;47.838;16.490;2024-03-02T01:23:23;26.83;;;10.27;;
55372;SDS011;70018;47.838;16.490;2024-03-02T01:25:50;35.05;;;13.82;;
55372;SDS011;70018;47.838;16.490;2024-03-02T01:28:18;29.45;;;13.57;;
55372;SDS011;70018;47.838;16.490;2024-03-02T01:30:45;30.48;;;13.35;;
55372;SDS011;70018;47.838;16.490;2024-03-02T01:33:12;42.80;;;17.92;;
55372;SDS011;70018;47.838;16.490;2024-03-02T01:35:39;30.55;;;14.55;;
55372;SDS011;70018;47.838;16.490;2024-03-02T01:38:06;36.70;;;16.30;;
55372;SDS011;70018;47.838;16.490;2024-03-02T01:40:34;43.72;;;16.92;;
55372;SDS011;70018;47.838;16.490;2024-03-02T01:43:01;28.23;;;14.75;;
55372;SDS011;70018;47.838;16.490;2024-03-02T01:45:28;34.38;;;14.23;;
55372;SDS011;70018;47.838;16.490;2024-03-02T01:47:55;28.27;;;12.65;;
55372;SDS011;70018;47.838;16.490;2024-03-02T01:50:26;24.63;;;12.18;;
55372;SDS011;70018;47.838;16.490;2024-03-02T01:52:57;35.72;;;15.60;;
55372;SDS011;70018;47.838;16.490;2024-03-02T01:55:25;35.67;;;15.93;;
55372;SDS011;70018;47.838;16.490;2024-03-02T01:57:52;30.77;;;13.90;;
55372;SDS011;70018;47.838;16.490;2024-03-02T02:00:22;42.42;;;17.67;;
55372;SDS011;70018;47.838;16.490;2024-03-02T02:02:51;38.95;;;17.08;;
55372;SDS011;70018;47.838;16.490;2024-03-02T02:05:18;35.22;;;15.60;;
55372;SDS011;70018;47.838;16.490;2024-03-02T02:07:45;36.70;;;16.55;;
55372;SDS011;70018;47.838;16.490;2024-03-02T02:10:11;30.92;;;14.68;;
55372;SDS011;70018;47.838;16.490;2024-03-02T02:12:39;36.10;;;15.40;;
55372;SDS011;70018;47.838;16.490;2024-03-02T02:18:08;24.88;;;11.18;;
55372;SDS011;70018;47.838;16.490;2024-03-02T02:20:35;27.40;;;13.45;;
55372;SDS011;70018;47.838;16.490;2024-03-02T02:23:02;26.30;;;12.27;;
55372;SDS011;70018;47.838;16.490;2024-03-02T02:25:30;38.10;;;16.90;;
55372;SDS011;70018;47.838;16.490;2024-03-02T02:27:57;16.73;;;8.13;;
55372;SDS011;70018;47.838;16.490;2024-03-02T02:30:26;18.88;;;9.05;;
55372;SDS011;70018;47.838;16.490;2024-03-02T02:32:54;23.33;;;9.95;;
55372;SDS011;70018;47.838;16.490;2024-03-02T02:35:21;19.77;;;9.30;;
55372;SDS011;70018;47.838;16.490;2024-03-02T02:37:48;20.50;;;9.90;;
55372;SDS011;70018;47.838;16.490;2024-03-02T02:40:16;23.63;;;11.57;;
55372;SDS011;70018;47.838;16.490;2024-03-02T02:42:45;19.95;;;9.18;;
55372;SDS011;70018;47.838;16.490;2024-03-02T02:45:12;21.92;;;10.43;;
55372;SDS011;70018;47.838;16.490;2024-03-02T02:47:41;30.90;;;11.55;;
55372;SDS011;70018;47.838;16.490;2024-03-02T02:50:08;17.63;;;9.57;;
55372;SDS011;70018;47.838;16.490;2024-03-02T02:52:37;36.92;;;16.00;;
55372;SDS011;70018;47.838;16.490;2024-03-02T02:55:08;25.52;;;13.10;;
55372;SDS011;70018;47.838;16.490;2024-03-02T02:57:37;24.23;;;11.93;;
55372;SDS011;70018;47.838;16.490;2024-03-02T03:00:06;20.38;;;9.57;;
55372;SDS011;70018;47.838;16.490;2024-03-02T03:02:41;18.88;;;9.63;;
55372;SDS011;70018;47.838;16.490;2024-03-02T03:05:09;24.85;;;11.40;;
55372;SDS011;70018;47.838;16.490;2024-03-02T03:07:37;20.65;;;9.30;;
55372;SDS011;70018;47.838;16.490;2024-03-02T03:10:04;30.50;;;12.88;;
55372;SDS011;70018;47.838;16.490;2024-03-02T03:12:33;20.65;;;8.98;;
55372;SDS011;70018;47.838;16.490;2024-03-02T03:15:00;21.90;;;9.63;;
55372;SDS011;70018;47.838;16.490;2024-03-02T03:17:27;15.35;;;7.53;;
55372;SDS011;70018;47.838;16.490;2024-03-02T03:19:54;21.33;;;9.75;;
55372;SDS011;70018;47.838;16.490;2024-03-02T03:22:21;15.13;;;7.28;;
55372;SDS011;70018;47.838;16.490;2024-03-02T03:24:48;30.67;;;14.10;;
55372;SDS011;70018;47.838;16.490;2024-03-02T03:27:15;29.60;;;13.38;;
55372;SDS011;70018;47.838;16.490;2024-03-02T03:29:41;30.17;;;13.32;;
55372;SDS011;70018;47.838;16.490;2024-03-02T03:32:08;35.63;;;15.75;;
55372;SDS011;70018;47.838;16.490;2024-03-02T03:34:35;26.02;;;13.00;;
55372;SDS011;70018;47.838;16.490;2024-03-02T03:37:02;23.50;;;12.57;;
55372;SDS011;70018;47.838;16.490;2024-03-02T03:39:29;27.63;;;13.38;;
55372;SDS011;70018;47.838;16.490;2024-03-02T03:41:55;21.75;;;9.65;;
55372;SDS011;70018;47.838;16.490;2024-03-02T03:44:22;31.33;;;12.82;;
55372;SDS011;70018;47.838;16.490;2024-03-02T03:46:49;26.38;;;11.13;;
55372;SDS011;70018;47.838;16.490;2024-03-02T03:49:16;22.33;;;9.32;;
55372;SDS011;70018;47.838;16.490;2024-03-02T03:51:43;26.30;;;9.88;;
55372;SDS011;70018;47.838;16.490;2024-03-02T03:54:10;23.75;;;10.05;;
55372;SDS011;70018;47.838;16.490;2024-03-02T03:56:37;18.08;;;7.82;;
55372;SDS011;70018;47.838;16.490;2024-03-02T03:59:04;17.38;;;7.68;;
55372;SDS011;70018;47.838;16.490;2024-03-02T04:01:31;15.73;;;7.68;;
55372;SDS011;70018;47.838;16.490;2024-03-02T04:03:58;22.05;;;8.70;;
55372;SDS011;70018;47.838;16.490;2024-03-02T04:06:25;17.38;;;8.15;;
55372;SDS011;70018;47.838;16.490;2024-03-02T04:08:52;16.15;;;7.82;;
55372;SDS011;70018;47.838;16.490;2024-03-02T04:11:18;17.38;;;8.48;;
55372;SDS011;70018;47.838;16.490;2024-03-02T04:13:45;19.55;;;8.68;;
55372;SDS011;70018;47.838;16.490;2024-03-02T04:16:11;26.80;;;12.85;;
55372;SDS011;70018;47.838;16.490;2024-03-02T04:18:38;19.35;;;9.52;;
55372;SDS011;70018;47.838;16.490;2024-03-02T04:21:06;17.45;;;6.95;;
55372;SDS011;70018;47.838;16.490;2024-03-02T04:23:32;22.45;;;10.50;;
55372;SDS011;70018;47.838;16.490;2024-03-02T04:25:59;23.10;;;10.07;;
55372;SDS011;70018;47.838;16.490;2024-03-02T04:28:26;26.30;;;11.20;;
55372;SDS011;70018;47.838;16.490;2024-03-02T04:30:52;18.80;;;9.18;;
55372;SDS011;70018;47.838;16.490;2024-03-02T04:33:19;19.23;;;8.30;;
55372;SDS011;70018;47.838;16.490;2024-03-02T04:35:46;17.70;;;8.40;;
55372;SDS011;70018;47.838;16.490;2024-03-02T04:38:13;39.28;;;12.85;;
55372;SDS011;70018;47.838;16.490;2024-03-02T04:40:39;23.52;;;9.50;;
55372;SDS011;70018;47.838;16.490;2024-03-02T04:43:06;20.90;;;10.93;;
55372;SDS011;70018;47.838;16.490;2024-03-02T04:45:37;16.80;;;7.55;;
55372;SDS011;70018;47.838;16.490;2024-03-02T04:48:04;20.63;;;9.80;;
55372;SDS011;70018;47.838;16.490;2024-03-02T04:50:32;18.02;;;9.80;;
55372;SDS011;70018;47.838;16.490;2024-03-02T04:52:59;18.10;;;8.85;;
55372;SDS011;70018;47.838;16.490;2024-03-02T04:55:25;15.80;;;9.35;;
55372;SDS011;70018;47.838;16.490;2024-03-02T04:57:55;14.80;;;7.50;;
55372;SDS011;70018;47.838;16.490;2024-03-02T05:00:22;20.85;;;9.43;;
55372;SDS011;70018;47.838;16.490;2024-03-02T05:02:49;15.77;;;8.15;;
55372;SDS011;70018;47.838;16.490;2024-03-02T05:05:17;40.53;;;10.32;;
55372;SDS011;70018;47.838;16.490;2024-03-02T05:07:44;17.90;;;9.15;;
55372;SDS011;70018;47.838;16.490;2024-03-02T05:10:11;48.58;;;14.45;;
55372;SDS011;70018;47.838;16.490;2024-03-02T05:12:41;22.05;;;10.25;;
55372;SDS011;70018;47.838;16.490;2024-03-02T05:15:13;35.80;;;11.38;;
55372;SDS011;70018;47.838;16.490;2024-03-02T05:17:41;21.80;;;10.45;;
55372;SDS011;70018;47.838;16.490;2024-03-02T05:20:12;33.50;;;12.18;;
55372;SDS011;70018;47.838;16.490;2024-03-02T05:22:39;34.67;;;10.95;;
55372;SDS011;70018;47.838;16.490;2024-03-02T05:25:06;47.25;;;15.05;;
55372;SDS011;70018;47.838;16.490;2024-03-02T05:27:33;23.95;;;9.00;;
55372;SDS011;70018;47.838;16.490;2024-03-02T05:30:00;29.80;;;13.80;;
55372;SDS011;70018;47.838;16.490;2024-03-02T05:32:27;20.95;;;9.18;;
55372;SDS011;70018;47.838;16.490;2024-03-02T05:34:54;15.20;;;8.05;;
55372;SDS011;70018;47.838;16.490;2024-03-02T05:37:21;11.65;;;5.38;;
55372;SDS011;70018;47.838;16.490;2024-03-02T05:39:48;26.33;;;7.50;;
55372;SDS011;70018;47.838;16.490;2024-03-02T05:42:15;39.70;;;12.23;;
55372;SDS011;70018;47.838;16.490;2024-03-02T05:44:43;24.60;;;9.15;;
55372;SDS011;70018;47.838;16.490;2024-03-02T05:47:10;48.30;;;10.52;;
55372;SDS011;70018;47.838;16.490;2024-03-02T05:49:36;32.25;;;13.15;;
55372;SDS011;70018;47.838;16.490;2024-03-02T05:52:03;83.30;;;15.80;;
55372;SDS011;70018;47.838;16.490;2024-03-02T05:54:30;8.52;;;4.68;;
55372;SDS011;70018;47.838;16.490;2024-03-02T05:56:56;23.27;;;10.07;;
55372;SDS011;70018;47.838;16.490;2024-03-02T05:59:23;27.13;;;11.75;;
55372;SDS011;70018;47.838;16.490;2024-03-02T06:01:50;62.80;;;11.40;;
55372;SDS011;70018;47.838;16.490;2024-03-02T06:04:19;52.63;;;10.20;;
55372;SDS011;70018;47.838;16.490;2024-03-02T06:06:46;47.20;;;12.15;;
55372;SDS011;70018;47.838;16.490;2024-03-02T06:09:13;12.65;;;6.72;;
55372;SDS011;70018;47.838;16.490;2024-03-02T06:11:40;14.63;;;7.78;;
55372;SDS011;70018;47.838;16.490;2024-03-02T06:14:07;12.50;;;5.25;;
55372;SDS011;70018;47.838;16.490;2024-03-02T06:16:35;18.55;;;9.07;;
55372;SDS011;70018;47.838;16.490;2024-03-02T06:19:02;37.45;;;12.10;;
55372;SDS011;70018;47.838;16.490;2024-03-02T06:21:29;27.80;;;9.63;;
55372;SDS011;70018;47.838;16.490;2024-03-02T06:23:56;27.98;;;9.88;;
55372;SDS011;70018;47.838;16.490;2024-03-02T06:26:23;12.95;;;6.30;;
55372;SDS011;70018;47.838;16.490;2024-03-02T06:28:51;10.93;;;6.13;;
55372;SDS011;70018;47.838;16.490;2024-03-02T06:31:18;13.07;;;6.90;;
55372;SDS011;70018;47.838;16.490;2024-03-02T06:33:45;9.68;;;5.38;;
55372;SDS011;70018;47.838;16.490;2024-03-02T06:36:12;9.30;;;3.95;;
55372;SDS011;70018;47.838;16.490;2024-03-02T06:38:39;12.15;;;5.20;;
55372;SDS011;70018;47.838;16.490;2024-03-02T06:41:09;7.60;;;2.88;;
55372;SDS011;70018;47.838;16.490;2024-03-02T06:43:36;9.68;;;4.30;;
55372;SDS011;70018;47.838;16.490;2024-03-02T06:46:02;10.82;;;5.00;;
55372;SDS011;70018;47.838;16.490;2024-03-02T06:48:31;10.20;;;5.30;;
55372;SDS011;70018;47.838;16.490;2024-03-02T06:51:00;13.50;;;6.07;;
55372;SDS011;70018;47.838;16.490;2024-03-02T06:53:27;16.45;;;8.75;;
55372;SDS011;70018;47.838;16.490;2024-03-02T06:55:54;9.80;;;5.00;;
55372;SDS011;70018;47.838;16.490;2024-03-02T06:58:21;21.65;;;9.40;;
55372;SDS011;70018;47.838;16.490;2024-03-02T07:00:48;14.60;;;6.93;;
55372;SDS011;70018;47.838;16.490;2024-03-02T07:03:14;28.40;;;12.95;;
55372;SDS011;70018;47.838;16.490;2024-03-02T07:05:41;31.73;;;11.73;;
55372;SDS011;70018;47.838;16.490;2024-03-02T07:08:08;25.20;;;13.00;;
55372;SDS011;70018;47.838;16.490;2024-03-02T07:10:34;37.70;;;14.15;;
55372;SDS011;70018;47.838;16.490;2024-03-02T07:13:01;23.15;;;10.20;;
55372;SDS011;70018;47.838;16.490;2024-03-02T07:15:28;19.33;;;9.13;;
55372;SDS011;70018;47.838;16.490;2024-03-02T07:17:55;20.90;;;9.75;;
55372;SDS011;70018;47.838;16.490;2024-03-02T07:20:22;20.88;;;9.45;;
55372;SDS011;70018;47.838;16.490;2024-03-02T07:22:49;20.02;;;9.18;;
55372;SDS011;70018;47.838;16.490;2024-03-02T07:25:16;20.40;;;10.20;;
55372;SDS011;70018;47.838;16.490;2024-03-02T07:27:45;17.38;;;8.65;;
55372;SDS011;70018;47.838;16.490;2024-03-02T07:30:15;24.40;;;10.95;;
55372;SDS011;70018;47.838;16.490;2024-03-02T07:32:45;34.28;;;15.40;;
55372;SDS011;70018;47.838;16.490;2024-03-02T07:35:12;27.23;;;12.23;;
55372;SDS011;70018;47.838;16.490;2024-03-02T07:37:42;31.77;;;14.65;;
55372;SDS011;70018;47.838;16.490;2024-03-02T07:40:10;17.15;;;8.90;;
55372;SDS011;70018;47.838;16.490;2024-03-02T07:42:40;34.72;;;15.48;;
55372;SDS011;70018;47.838;16.490;2024-03-02T07:45:07;28.25;;;12.32;;
55372;SDS011;70018;47.838;16.490;2024-03-02T07:47:34;39.20;;;18.80;;
55372;SDS011;70018;47.838;16.490;2024-03-02T07:50:02;28.73;;;13.05;;
55372;SDS011;70018;47.838;16.490;2024-03-02T07:52:32;35.50;;;15.65;;
55372;SDS011;70018;47.838;16.490;2024-03-02T07:54:59;22.73;;;10.77;;
55372;SDS011;70018;47.838;16.490;2024-03-02T07:57:26;32.20;;;15.45;;
55372;SDS011;70018;47.838;16.490;2024-03-02T07:59:53;29.48;;;14.73;;
55372;SDS011;70018;47.838;16.490;2024-03-02T08:02:19;27.35;;;13.18;;
55372;SDS011;70018;47.838;16.490;2024-03-02T08:04:46;29.10;;;14.73;;
55372;SDS011;70018;47.838;16.490;2024-03-02T08:07:13;18.85;;;10.27;;
55372;SDS011;70018;47.838;16.490;2024-03-02T08:09:40;29.80;;;11.05;;
55372;SDS011;70018;47.838;16.490;2024-03-02T08:12:06;26.98;;;12.15;;
55372;SDS011;70018;47.838;16.490;2024-03-02T08:14:33;19.00;;;8.40;;
55372;SDS011;70018;47.838;16.490;2024-03-02T08:17:00;30.40;;;13.60;;
55372;SDS011;70018;47.838;16.490;2024-03-02T08:19:27;20.33;;;10.10;;
55372;SDS011;70018;47.838;16.490;2024-03-02T08:21:55;13.70;;;6.78;;
55372;SDS011;70018;47.838;16.490;2024-03-02T08:24:21;13.52;;;6.72;;
55372;SDS011;70018;47.838;16.490;2024-03-02T08:26:48;19.60;;;8.18;;
55372;SDS011;70018;47.838;16.490;2024-03-02T08:29:15;21.77;;;9.77;;
55372;SDS011;70018;47.838;16.490;2024-03-02T08:31:41;27.27;;;13.35;;
55372;SDS011;70018;47.838;16.490;2024-03-02T08:34:08;13.00;;;5.97;;
55372;SDS011;70018;47.838;16.490;2024-03-02T08:36:35;17.75;;;8.57;;
55372;SDS011;70018;47.838;16.490;2024-03-02T08:39:02;34.95;;;13.40;;
55372;SDS011;70018;47.838;16.490;2024-03-02T08:41:29;27.52;;;13.82;;
55372;SDS011;70018;47.838;16.490;2024-03-02T08:43:56;20.30;;;11.25;;
55372;SDS011;70018;47.838;16.490;2024-03-02T08:46:23;14.25;;;8.20;;
55372;SDS011;70018;47.838;16.490;2024-03-02T08:48:49;11.85;;;6.72;;
55372;SDS011;70018;47.838;16.490;2024-03-02T08:51:16;15.60;;;7.53;;
55372;SDS011;70018;47.838;16.490;2024-03-02T08:53:43;12.82;;;7.22;;
55372;SDS011;70018;47.838;16.490;2024-03-02T08:56:10;20.25;;;9.02;;
55372;SDS011;70018;47.838;16.490;2024-03-02T08:58:36;17.58;;;8.50;;
55372;SDS011;70018;47.838;16.490;2024-03-02T09:01:03;25.40;;;11.68;;
55372;SDS011;70018;47.838;16.490;2024-03-02T09:03:30;27.40;;;12.45;;
55372;SDS011;70018;47.838;16.490;2024-03-02T09:05:59;21.55;;;9.07;;
55372;SDS011;70018;47.838;16.490;2024-03-02T09:08:26;14.07;;;6.93;;
55372;SDS011;70018;47.838;16.490;2024-03-02T09:10:52;20.13;;;8.95;;
55372;SDS011;70018;47.838;16.490;2024-03-02T09:13:19;12.50;;;5.95;;
55372;SDS011;70018;47.838;16.490;2024-03-02T09:15:46;16.45;;;7.43;;
55372;SDS011;70018;47.838;16.490;2024-03-02T09:18:13;12.35;;;6.90;;
55372;SDS011;70018;47.838;16.490;2024-03-02T09:20:40;17.58;;;9.75;;
55372;SDS011;70018;47.838;16.490;2024-03-02T09:23:07;15.75;;;8.07;;
55372;SDS011;70018;47.838;16.490;2024-03-02T09:25:33;20.45;;;8.77;;
55372;SDS011;70018;47.838;16.490;2024-03-02T09:28:00;18.42;;;10.70;;
55372;SDS011;70018;47.838;16.490;2024-03-02T09:30:27;17.67;;;8.25;;
55372;SDS011;70018;47.838;16.490;2024-03-02T09:32:54;17.15;;;9.82;;
55372;SDS011;70018;47.838;16.490;2024-03-02T09:35:40;19.80;;;10.02;;
55372;SDS011;70018;47.838;16.490;2024-03-02T09:38:07;14.63;;;8.00;;
55372;SDS011;70018;47.838;16.490;2024-03-02T09:40:34;21.20;;;9.20;;
55372;SDS011;70018;47.838;16.490;2024-03-02T09:43:00;15.90;;;7.65;;
55372;SDS011;70018;47.838;16.490;2024-03-02T09:45:29;18.65;;;9.50;;
55372;SDS011;70018;47.838;16.490;2024-03-02T09:47:56;19.67;;;9.40;;
55372;SDS011;70018;47.838;16.490;2024-03-02T09:50:23;20.48;;;10.05;;
55372;SDS011;70018;47.838;16.490;2024-03-02T09:52:50;20.20;;;8.73;;
55372;SDS011;70018;47.838;16.490;2024-03-02T09:55:17;19.23;;;10.65;;
55372;SDS011;70018;47.838;16.490;2024-03-02T09:57:45;22.20;;;10.13;;
55372;SDS011;70018;47.838;16.490;2024-03-02T10:00:14;20.98;;;10.73;;
55372;SDS011;70018;47.838;16.490;2024-03-02T10:02:42;19.30;;;10.35;;
55372;SDS011;70018;47.838;16.490;2024-03-02T10:05:09;16.65;;;9.82;;
55372;SDS011;70018;47.838;16.490;2024-03-02T10:07:36;15.35;;;8.75;;
55372;SDS011;70018;47.838;16.490;2024-03-02T10:10:13;14.15;;;7.60;;
55372;SDS011;70018;47.838;16.490;2024-03-02T10:12:40;17.48;;;9.57;;
55372;SDS011;70018;47.838;16.490;2024-03-02T10:15:07;24.83;;;11.38;;
55372;SDS011;70018;47.838;16.490;2024-03-02T10:17:36;18.02;;;10.63;;
55372;SDS011;70018;47.838;16.490;2024-03-02T10:20:21;16.92;;;8.45;;
55372;SDS011;70018;47.838;16.490;2024-03-02T10:22:51;27.65;;;13.75;;
55372;SDS011;70018;47.838;16.490;2024-03-02T10:25:31;20.10;;;9.30;;
55372;SDS011;70018;47.838;16.490;2024-03-02T10:28:16;17.05;;;9.95;;
55372;SDS011;70018;47.838;16.490;2024-03-02T10:30:42;20.45;;;11.38;;
55372;SDS011;70018;47.838;16.490;2024-03-02T10:33:09;28.80;;;14.93;;
55372;SDS011;70018;47.838;16.490;2024-03-02T10:35:36;20.67;;;11.23;;
55372;SDS011;70018;47.838;16.490;2024-03-02T10:38:05;22.52;;;11.77;;
55372;SDS011;70018;47.838;16.490;2024-03-02T10:40:32;23.25;;;10.52;;
55372;SDS011;70018;47.838;16.490;2024-03-02T10:43:00;21.35;;;11.38;;
55372;SDS011;70018;47.838;16.490;2024-03-02T10:45:30;18.75;;;10.63;;
55372;SDS011;70018;47.838;16.490;2024-03-02T10:47:57;22.45;;;12.57;;
55372;SDS011;70018;47.838;16.490;2024-03-02T10:50:24;27.00;;;13.73;;
55372;SDS011;70018;47.838;16.490;2024-03-02T10:52:51;23.55;;;11.60;;
55372;SDS011;70018;47.838;16.490;2024-03-02T10:55:18;23.58;;;11.75;;
55372;SDS011;70018;47.838;16.490;2024-03-02T10:57:50;25.02;;;11.75;;
55372;SDS011;70018;47.838;16.490;2024-03-02T11:00:21;29.58;;;12.88;;
55372;SDS011;70018;47.838;16.490;2024-03-02T11:02:57;22.50;;;11.25;;
55372;SDS011;70018;47.838;16.490;2024-03-02T11:05:28;25.92;;;14.43;;
55372;SDS011;70018;47.838;16.490;2024-03-02T11:08:01;20.67;;;11.07;;
55372;SDS011;70018;47.838;16.490;2024-03-02T11:13:20;32.35;;;15.05;;
55372;SDS011;70018;47.838;16.490;2024-03-02T11:15:51;30.42;;;14.57;;
55372;SDS011;70018;47.838;16.490;2024-03-02T11:18:24;27.20;;;14.02;;
55372;SDS011;70018;47.838;16.490;2024-03-02T11:20:53;19.35;;;9.05;;
55372;SDS011;70018;47.838;16.490;2024-03-02T11:23:21;19.67;;;10.02;;
55372;SDS011;70018;47.838;16.490;2024-03-02T11:28:45;30.67;;;14.82;;
55372;SDS011;70018;47.838;16.490;2024-03-02T11:31:12;29.35;;;14.80;;
55372;SDS011;70018;47.838;16.490;2024-03-02T11:33:39;30.30;;;14.30;;
55372;SDS011;70018;47.838;16.490;2024-03-02T11:36:06;26.33;;;14.23;;
55372;SDS011;70018;47.838;16.490;2024-03-02T11:38:36;26.25;;;12.15;;
55372;SDS011;70018;47.838;16.490;2024-03-02T11:41:05;26.13;;;13.48;;
55372;SDS011;70018;47.838;16.490;2024-03-02T11:43:38;35.95;;;18.83;;
55372;SDS011;70018;47.838;16.490;2024-03-02T11:46:07;36.15;;;17.55;;
55372;SDS011;70018;47.838;16.490;2024-03-02T11:48:35;31.65;;;15.50;;
55372;SDS011;70018;47.838;16.490;2024-03-02T11:51:04;37.30;;;17.08;;
55372;SDS011;70018;47.838;16.490;2024-03-02T11:53:31;30.95;;;14.00;;
55372;SDS011;70018;47.838;16.490;2024-03-02T11:56:02;25.73;;;14.40;;
55372;SDS011;70018;47.838;16.490;2024-03-02T11:58:29;29.95;;;14.32;;
55372;SDS011;70018;47.838;16.490;2024-03-02T12:00:56;25.38;;;12.52;;
55372;SDS011;70018;47.838;16.490;2024-03-02T12:03:24;34.20;;;14.65;;
55372;SDS011;70018;47.838;16.490;2024-03-02T12:05:53;35.78;;;16.38;;
55372;SDS011;70018;47.838;16.490;2024-03-02T12:08:21;26.75;;;14.13;;
55372;SDS011;70018;47.838;16.490;2024-03-02T12:11:01;24.25;;;13.88;;
55372;SDS011;70018;47.838;16.490;2024-03-02T12:13:30;27.77;;;13.48;;
55372;SDS011;70018;47.838;16.490;2024-03-02T12:15:57;34.88;;;15.63;;
55372;SDS011;70018;47.838;16.490;2024-03-02T12:18:24;32.85;;;17.50;;
55372;SDS011;70018;47.838;16.490;2024-03-02T12:20:52;25.35;;;10.98;;
55372;SDS011;70018;47.838;16.490;2024-03-02T12:23:23;36.70;;;16.92;;
55372;SDS011;70018;47.838;16.490;2024-03-02T12:25:49;28.70;;;14.07;;
55372;SDS011;70018;47.838;16.490;2024-03-02T12:28:17;33.40;;;17.00;;
55372;SDS011;70018;47.838;16.490;2024-03-02T12:30:44;24.38;;;11.80;;
55372;SDS011;70018;47.838;16.490;2024-03-02T12:33:11;28.15;;;14.68;;
55372;SDS011;70018;47.838;16.490;2024-03-02T12:35:38;36.10;;;18.17;;
55372;SDS011;70018;47.838;16.490;2024-03-02T12:38:07;28.70;;;15.27;;
55372;SDS011;70018;47.838;16.490;2024-03-02T12:40:34;42.53;;;21.08;;
55372;SDS011;70018;47.838;16.490;2024-03-02T12:43:04;30.98;;;15.23;;
55372;SDS011;70018;47.838;16.490;2024-03-02T12:45:33;35.38;;;19.35;;
55372;SDS011;70018;47.838;16.490;2024-03-02T12:48:00;43.58;;;21.60;;
55372;SDS011;70018;47.838;16.490;2024-03-02T12:50:28;29.45;;;16.50;;
55372;SDS011;70018;47.838;16.490;2024-03-02T12:52:55;32.28;;;15.85;;
55372;SDS011;70018;47.838;16.490;2024-03-02T12:55:22;33.70;;;14.23;;
55372;SDS011;70018;47.838;16.490;2024-03-02T12:57:50;28.08;;;14.73;;
55372;SDS011;70018;47.838;16.490;2024-03-02T13:00:19;36.33;;;18.10;;
55372;SDS011;70018;47.838;16.490;2024-03-02T13:02:46;31.73;;;14.95;;
55372;SDS011;70018;47.838;16.490;2024-03-02T13:05:14;34.30;;;17.23;;
55372;SDS011;70018;47.838;16.490;2024-03-02T13:07:42;29.02;;;14.45;;
55372;SDS011;70018;47.838;16.490;2024-03-02T13:10:08;33.60;;;18.17;;
55372;SDS011;70018;47.838;16.490;2024-03-02T13:12:36;30.35;;;16.10;;
55372;SDS011;70018;47.838;16.490;2024-03-02T13:15:04;24.27;;;12.52;;
55372;SDS011;70018;47.838;16.490;2024-03-02T13:17:34;25.95;;;13.05;;
55372;SDS011;70018;47.838;16.490;2024-03-02T13:20:04;22.63;;;13.10;;
55372;SDS011;70018;47.838;16.490;2024-03-02T13:22:35;26.70;;;14.80;;
55372;SDS011;70018;47.838;16.490;2024-03-02T13:25:02;34.33;;;15.05;;
55372;SDS011;70018;47.838;16.490;2024-03-02T13:27:33;23.80;;;13.43;;
55372;SDS011;70018;47.838;16.490;2024-03-02T13:30:01;31.58;;;15.00;;
55372;SDS011;70018;47.838;16.490;2024-03-02T13:32:29;27.63;;;13.85;;
55372;SDS011;70018;47.838;16.490;2024-03-02T13:34:55;23.15;;;12.48;;
55372;SDS011;70018;47.838;16.490;2024-03-02T13:37:22;24.17;;;12.57;;
55372;SDS011;70018;47.838;16.490;2024-03-02T13:39:50;25.38;;;13.98;;
55372;SDS011;70018;47.838;16.490;2024-03-02T13:42:16;27.02;;;14.05;;
55372;SDS011;70018;47.838;16.490;2024-03-02T13:44:44;27.60;;;15.38;;
55372;SDS011;70018;47.838;16.490;2024-03-02T13:47:13;31.40;;;12.93;;
55372;SDS011;70018;47.838;16.490;2024-03-02T13:49:40;24.80;;;12.80;;
55372;SDS011;70018;47.838;16.490;2024-03-02T13:52:11;29.92;;;16.45;;
55372;SDS011;70018;47.838;16.490;2024-03-02T13:54:40;24.65;;;13.98;;
55372;SDS011;70018;47.838;16.490;2024-03-02T13:57:08;24.13;;;13.35;;
55372;SDS011;70018;47.838;16.490;2024-03-02T13:59:35;26.27;;;14.93;;
55372;SDS011;70018;47.838;16.490;2024-03-02T14:02:03;24.60;;;13.68;;
55372;SDS011;70018;47.838;16.490;2024-03-02T14:04:34;28.20;;;16.38;;
55372;SDS011;70018;47.838;16.490;2024-03-02T14:07:02;31.77;;;16.20;;
55372;SDS011;70018;47.838;16.490;2024-03-02T14:09:29;33.75;;;16.00;;
55372;SDS011;70018;47.838;16.490;2024-03-02T14:11:56;27.63;;;15.35;;
55372;SDS011;70018;47.838;16.490;2024-03-02T14:14:23;25.08;;;13.80;;
55372;SDS011;70018;47.838;16.490;2024-03-02T14:16:50;25.83;;;15.45;;
55372;SDS011;70018;47.838;16.490;2024-03-02T14:19:18;23.17;;;13.25;;
55372;SDS011;70018;47.838;16.490;2024-03-02T14:21:45;25.27;;;13.88;;
55372;SDS011;70018;47.838;16.490;2024-03-02T14:24:12;19.80;;;10.50;;
55372;SDS011;70018;47.838;16.490;2024-03-02T14:26:38;23.70;;;12.75;;
55372;SDS011;70018;47.838;16.490;2024-03-02T14:29:06;19.40;;;10.00;;
55372;SDS011;70018;47.838;16.490;2024-03-02T14:31:32;26.08;;;13.55;;